Airfield :
LOGIN :

Register | Disclaimer

   EN    FR    IT 

 










Legend :    VFR   Marginal VFR   IFR   Intensive IFR   Very Intensive IFR
Visi :
Ceiling :
>= 8 km
>= 3000ft
5 to 8 km
1000 to 3000 ft
1500m to 5 km
500 to 1000 ft
800 to 1500m
200 to 500 ft
< 800m
< 200 ft
Symbols :   Thunderstorms  Fog  Heavy snow  Heavy precipitations  Wind > 20 kt
SIGMETs :     Misc.  Thunderstorms  Icing  Turbulence  Mountain Waves  Volcanic Ashes






- Airport Elevation : 39 ft
- IATA code : TRS


LIPQ - Friuli Venezia Giulia Apt. Trieste

CURRENT METAR :
  • 250050Z AUTO 07007KT 040V110 9999 NCD 25/14 Q1011

EXPIRED METARs :
  • 250020Z AUTO 07010KT 020V110 9999 FEW150/// 26/14 Q1012
  • 242350Z AUTO 08011KT 050V110 9999 FEW150/// 26/14 Q1012
  • 242320Z AUTO 08009KT 040V120 9999 FEW150/// 26/14 Q1012
  • 242250Z AUTO 08010KT 040V110 9999 FEW081/// 26/14 Q1012
  • 242150Z AUTO 08012KT 9999 NCD 26/15 Q1012
  • 242120Z AUTO 09014KT 050V110 9999 FEW120/// 26/15 Q1012
  • 242050Z AUTO 09010KT 9999 BKN140/// 26/14 Q1012
  • 242020Z AUTO 08009KT 9999 FEW140/// 26/14 Q1012

TAF TAF LIPQ
Valid from the 25 at 00:00 until the 26 at 00:00 UTC


242300Z 2500/2524 07014KT 9999 SCT040
TEMPO 2515/2524 08018G30KT TSRA



MET'MAP, your aeronautical weather chart ! - Copyright ORBIFLY December 2007 - Disclaimer

ORBIFLY MET'MAP TEAM :

Programming & Development : Alexandra Zaïnal
Original concept : Baudouin d'Aumeries
Technical & hardware support : Manuel Goepfert
Assistance : Marc-Olivier Méhu




SOURCES & CREDITS :

   NOAA